sensor_id;sensor_type;location;lat;lon;timestamp;P1;durP1;ratioP1;P2;durP2;ratioP2
13445;SDS011;6795;51.232;3.764;2023-12-28T00:00:53;3.88;;;1.35;;
13445;SDS011;6795;51.232;3.764;2023-12-28T00:03:22;2.63;;;1.30;;
13445;SDS011;6795;51.232;3.764;2023-12-28T00:05:51;1.83;;;1.05;;
13445;SDS011;6795;51.232;3.764;2023-12-28T00:08:20;1.52;;;1.15;;
13445;SDS011;6795;51.232;3.764;2023-12-28T00:10:48;1.88;;;1.25;;
13445;SDS011;6795;51.232;3.764;2023-12-28T00:13:17;2.15;;;1.20;;
13445;SDS011;6795;51.232;3.764;2023-12-28T00:15:46;4.32;;;1.83;;
13445;SDS011;6795;51.232;3.764;2023-12-28T00:18:16;1.95;;;1.27;;
13445;SDS011;6795;51.232;3.764;2023-12-28T00:20:48;2.67;;;1.00;;
13445;SDS011;6795;51.232;3.764;2023-12-28T00:23:17;1.23;;;1.13;;
13445;SDS011;6795;51.232;3.764;2023-12-28T00:25:46;2.40;;;0.90;;
13445;SDS011;6795;51.232;3.764;2023-12-28T00:28:15;1.58;;;0.93;;
13445;SDS011;6795;51.232;3.764;2023-12-28T00:30:43;2.10;;;0.88;;
13445;SDS011;6795;51.232;3.764;2023-12-28T00:33:12;2.25;;;0.70;;
13445;SDS011;6795;51.232;3.764;2023-12-28T00:35:42;1.52;;;0.88;;
13445;SDS011;6795;51.232;3.764;2023-12-28T00:38:11;2.80;;;0.60;;
13445;SDS011;6795;51.232;3.764;2023-12-28T00:40:39;1.52;;;0.50;;
13445;SDS011;6795;51.232;3.764;2023-12-28T00:43:08;2.45;;;0.80;;
13445;SDS011;6795;51.232;3.764;2023-12-28T00:45:37;1.52;;;0.88;;
13445;SDS011;6795;51.232;3.764;2023-12-28T00:48:06;2.63;;;0.90;;
13445;SDS011;6795;51.232;3.764;2023-12-28T00:50:34;3.15;;;0.80;;
13445;SDS011;6795;51.232;3.764;2023-12-28T00:53:07;2.75;;;0.98;;
13445;SDS011;6795;51.232;3.764;2023-12-28T00:55:35;3.33;;;0.90;;
13445;SDS011;6795;51.232;3.764;2023-12-28T00:58:04;3.42;;;0.90;;
13445;SDS011;6795;51.232;3.764;2023-12-28T01:00:33;2.13;;;1.00;;
13445;SDS011;6795;51.232;3.764;2023-12-28T01:03:01;1.30;;;0.93;;
13445;SDS011;6795;51.232;3.764;2023-12-28T01:05:30;3.63;;;0.77;;
13445;SDS011;6795;51.232;3.764;2023-12-28T01:07:58;1.50;;;0.60;;
13445;SDS011;6795;51.232;3.764;2023-12-28T01:10:29;4.80;;;1.08;;
13445;SDS011;6795;51.232;3.764;2023-12-28T01:12:57;4.32;;;0.73;;
13445;SDS011;6795;51.232;3.764;2023-12-28T01:15:26;3.15;;;0.93;;
13445;SDS011;6795;51.232;3.764;2023-12-28T01:17:55;1.30;;;0.50;;
13445;SDS011;6795;51.232;3.764;2023-12-28T01:20:24;1.98;;;0.73;;
13445;SDS011;6795;51.232;3.764;2023-12-28T01:22:52;2.80;;;0.93;;
13445;SDS011;6795;51.232;3.764;2023-12-28T01:25:21;4.72;;;0.80;;
13445;SDS011;6795;51.232;3.764;2023-12-28T01:27:51;1.02;;;0.70;;
13445;SDS011;6795;51.232;3.764;2023-12-28T01:30:19;1.80;;;0.68;;
13445;SDS011;6795;51.232;3.764;2023-12-28T01:32:48;2.33;;;0.70;;
13445;SDS011;6795;51.232;3.764;2023-12-28T01:35:17;3.75;;;0.80;;
13445;SDS011;6795;51.232;3.764;2023-12-28T01:37:45;3.20;;;0.57;;
13445;SDS011;6795;51.232;3.764;2023-12-28T01:40:15;2.90;;;0.85;;
13445;SDS011;6795;51.232;3.764;2023-12-28T01:42:44;2.03;;;0.68;;
13445;SDS011;6795;51.232;3.764;2023-12-28T01:45:15;3.83;;;0.70;;
13445;SDS011;6795;51.232;3.764;2023-12-28T01:47:43;0.82;;;0.50;;
13445;SDS011;6795;51.232;3.764;2023-12-28T01:50:12;5.75;;;1.25;;
13445;SDS011;6795;51.232;3.764;2023-12-28T01:52:41;3.28;;;1.52;;
13445;SDS011;6795;51.232;3.764;2023-12-28T01:55:10;1.67;;;0.93;;
13445;SDS011;6795;51.232;3.764;2023-12-28T01:57:39;1.40;;;0.60;;
13445;SDS011;6795;51.232;3.764;2023-12-28T02:00:08;7.78;;;0.82;;
13445;SDS011;6795;51.232;3.764;2023-12-28T02:02:38;4.13;;;0.60;;
13445;SDS011;6795;51.232;3.764;2023-12-28T02:05:08;0.85;;;0.50;;
13445;SDS011;6795;51.232;3.764;2023-12-28T02:07:37;3.92;;;0.57;;
13445;SDS011;6795;51.232;3.764;2023-12-28T02:10:06;2.33;;;0.80;;
13445;SDS011;6795;51.232;3.764;2023-12-28T02:12:35;0.90;;;0.50;;
13445;SDS011;6795;51.232;3.764;2023-12-28T02:15:04;2.85;;;1.02;;
13445;SDS011;6795;51.232;3.764;2023-12-28T02:17:36;3.70;;;0.70;;
13445;SDS011;6795;51.232;3.764;2023-12-28T02:20:07;3.53;;;0.77;;
13445;SDS011;6795;51.232;3.764;2023-12-28T02:22:36;7.97;;;0.98;;
13445;SDS011;6795;51.232;3.764;2023-12-28T02:25:08;3.17;;;0.80;;
13445;SDS011;6795;51.232;3.764;2023-12-28T02:27:38;3.13;;;0.90;;
13445;SDS011;6795;51.232;3.764;2023-12-28T02:30:08;4.10;;;0.80;;
13445;SDS011;6795;51.232;3.764;2023-12-28T02:32:40;3.13;;;0.65;;
13445;SDS011;6795;51.232;3.764;2023-12-28T02:35:14;3.92;;;0.70;;
13445;SDS011;6795;51.232;3.764;2023-12-28T02:37:44;3.22;;;0.70;;
13445;SDS011;6795;51.232;3.764;2023-12-28T02:40:17;4.32;;;0.80;;
13445;SDS011;6795;51.232;3.764;2023-12-28T02:42:46;4.20;;;0.70;;
13445;SDS011;6795;51.232;3.764;2023-12-28T02:45:15;4.35;;;1.20;;
13445;SDS011;6795;51.232;3.764;2023-12-28T02:47:45;2.58;;;0.70;;
13445;SDS011;6795;51.232;3.764;2023-12-28T02:50:14;3.13;;;0.60;;
13445;SDS011;6795;51.232;3.764;2023-12-28T02:52:43;5.03;;;0.98;;
13445;SDS011;6795;51.232;3.764;2023-12-28T02:55:11;5.53;;;0.70;;
13445;SDS011;6795;51.232;3.764;2023-12-28T02:57:43;2.85;;;0.93;;
13445;SDS011;6795;51.232;3.764;2023-12-28T03:00:12;3.60;;;0.70;;
13445;SDS011;6795;51.232;3.764;2023-12-28T03:02:40;2.92;;;0.80;;
13445;SDS011;6795;51.232;3.764;2023-12-28T03:05:09;5.03;;;0.70;;
13445;SDS011;6795;51.232;3.764;2023-12-28T03:07:38;7.47;;;1.08;;
13445;SDS011;6795;51.232;3.764;2023-12-28T03:10:07;4.97;;;0.90;;
13445;SDS011;6795;51.232;3.764;2023-12-28T03:12:41;7.32;;;0.82;;
13445;SDS011;6795;51.232;3.764;2023-12-28T03:15:10;2.15;;;0.70;;
13445;SDS011;6795;51.232;3.764;2023-12-28T03:17:39;2.45;;;0.50;;
13445;SDS011;6795;51.232;3.764;2023-12-28T03:20:08;4.35;;;1.25;;
13445;SDS011;6795;51.232;3.764;2023-12-28T03:22:37;3.80;;;0.70;;
13445;SDS011;6795;51.232;3.764;2023-12-28T03:25:07;4.57;;;0.80;;
13445;SDS011;6795;51.232;3.764;2023-12-28T03:27:36;6.43;;;0.80;;
13445;SDS011;6795;51.232;3.764;2023-12-28T03:30:07;4.65;;;0.80;;
13445;SDS011;6795;51.232;3.764;2023-12-28T03:32:36;8.50;;;0.73;;
13445;SDS011;6795;51.232;3.764;2023-12-28T03:35:05;6.93;;;1.58;;
13445;SDS011;6795;51.232;3.764;2023-12-28T03:37:34;10.02;;;0.85;;
13445;SDS011;6795;51.232;3.764;2023-12-28T03:40:03;2.20;;;0.60;;
13445;SDS011;6795;51.232;3.764;2023-12-28T03:42:32;1.45;;;0.60;;
13445;SDS011;6795;51.232;3.764;2023-12-28T03:45:01;5.68;;;1.95;;
13445;SDS011;6795;51.232;3.764;2023-12-28T03:47:31;4.22;;;0.70;;
13445;SDS011;6795;51.232;3.764;2023-12-28T03:49:59;4.72;;;0.70;;
13445;SDS011;6795;51.232;3.764;2023-12-28T03:52:28;5.75;;;0.60;;
13445;SDS011;6795;51.232;3.764;2023-12-28T03:54:57;6.22;;;1.23;;
13445;SDS011;6795;51.232;3.764;2023-12-28T03:57:26;4.32;;;0.68;;
13445;SDS011;6795;51.232;3.764;2023-12-28T03:59:55;2.63;;;0.77;;
13445;SDS011;6795;51.232;3.764;2023-12-28T04:02:23;4.55;;;0.60;;
13445;SDS011;6795;51.232;3.764;2023-12-28T04:04:58;4.32;;;0.75;;
13445;SDS011;6795;51.232;3.764;2023-12-28T04:07:27;5.20;;;0.70;;
13445;SDS011;6795;51.232;3.764;2023-12-28T04:09:55;5.38;;;0.98;;
13445;SDS011;6795;51.232;3.764;2023-12-28T04:12:25;2.22;;;0.60;;
13445;SDS011;6795;51.232;3.764;2023-12-28T04:14:54;6.75;;;0.70;;
13445;SDS011;6795;51.232;3.764;2023-12-28T04:17:23;2.33;;;0.40;;
13445;SDS011;6795;51.232;3.764;2023-12-28T04:19:51;5.53;;;0.85;;
13445;SDS011;6795;51.232;3.764;2023-12-28T04:22:22;5.97;;;0.65;;
13445;SDS011;6795;51.232;3.764;2023-12-28T04:24:50;5.20;;;0.50;;
13445;SDS011;6795;51.232;3.764;2023-12-28T04:27:19;3.22;;;0.70;;
13445;SDS011;6795;51.232;3.764;2023-12-28T04:29:48;6.18;;;0.50;;
13445;SDS011;6795;51.232;3.764;2023-12-28T04:32:17;11.05;;;1.10;;
13445;SDS011;6795;51.232;3.764;2023-12-28T04:34:45;8.15;;;1.40;;
13445;SDS011;6795;51.232;3.764;2023-12-28T04:37:14;12.23;;;1.02;;
13445;SDS011;6795;51.232;3.764;2023-12-28T04:39:44;8.68;;;1.15;;
13445;SDS011;6795;51.232;3.764;2023-12-28T04:42:13;10.18;;;1.05;;
13445;SDS011;6795;51.232;3.764;2023-12-28T04:44:41;6.78;;;0.70;;
13445;SDS011;6795;51.232;3.764;2023-12-28T04:47:10;6.05;;;1.00;;
13445;SDS011;6795;51.232;3.764;2023-12-28T04:49:38;12.52;;;1.20;;
13445;SDS011;6795;51.232;3.764;2023-12-28T04:52:07;6.95;;;0.73;;
13445;SDS011;6795;51.232;3.764;2023-12-28T04:54:36;9.45;;;1.17;;
13445;SDS011;6795;51.232;3.764;2023-12-28T04:57:06;8.45;;;1.23;;
13445;SDS011;6795;51.232;3.764;2023-12-28T04:59:37;8.57;;;1.20;;
13445;SDS011;6795;51.232;3.764;2023-12-28T05:02:06;10.38;;;1.00;;
13445;SDS011;6795;51.232;3.764;2023-12-28T05:04:36;15.38;;;1.55;;
13445;SDS011;6795;51.232;3.764;2023-12-28T05:07:06;6.60;;;1.38;;
13445;SDS011;6795;51.232;3.764;2023-12-28T05:09:35;10.77;;;0.85;;
13445;SDS011;6795;51.232;3.764;2023-12-28T05:12:05;11.93;;;1.60;;
13445;SDS011;6795;51.232;3.764;2023-12-28T05:14:34;6.25;;;0.88;;
13445;SDS011;6795;51.232;3.764;2023-12-28T05:17:03;11.95;;;1.85;;
13445;SDS011;6795;51.232;3.764;2023-12-28T05:19:31;7.18;;;1.15;;
13445;SDS011;6795;51.232;3.764;2023-12-28T05:22:00;17.90;;;1.30;;
13445;SDS011;6795;51.232;3.764;2023-12-28T05:24:33;5.88;;;1.02;;
13445;SDS011;6795;51.232;3.764;2023-12-28T05:27:01;9.18;;;0.98;;
13445;SDS011;6795;51.232;3.764;2023-12-28T05:29:31;7.28;;;1.27;;
13445;SDS011;6795;51.232;3.764;2023-12-28T05:32:00;12.85;;;1.00;;
13445;SDS011;6795;51.232;3.764;2023-12-28T05:34:28;5.20;;;0.60;;
13445;SDS011;6795;51.232;3.764;2023-12-28T05:36:57;6.32;;;0.88;;
13445;SDS011;6795;51.232;3.764;2023-12-28T05:39:26;10.13;;;1.38;;
13445;SDS011;6795;51.232;3.764;2023-12-28T05:41:54;4.43;;;0.63;;
13445;SDS011;6795;51.232;3.764;2023-12-28T05:44:24;8.15;;;0.73;;
13445;SDS011;6795;51.232;3.764;2023-12-28T05:46:54;10.60;;;1.05;;
13445;SDS011;6795;51.232;3.764;2023-12-28T05:49:23;5.53;;;0.68;;
13445;SDS011;6795;51.232;3.764;2023-12-28T05:51:55;7.90;;;1.05;;
13445;SDS011;6795;51.232;3.764;2023-12-28T05:54:24;5.78;;;0.90;;
13445;SDS011;6795;51.232;3.764;2023-12-28T05:56:53;3.55;;;0.60;;
13445;SDS011;6795;51.232;3.764;2023-12-28T05:59:22;4.55;;;0.50;;
13445;SDS011;6795;51.232;3.764;2023-12-28T06:01:55;5.35;;;1.48;;
13445;SDS011;6795;51.232;3.764;2023-12-28T06:04:24;9.18;;;1.05;;
13445;SDS011;6795;51.232;3.764;2023-12-28T06:06:53;10.52;;;0.75;;
13445;SDS011;6795;51.232;3.764;2023-12-28T06:09:22;14.30;;;1.08;;
13445;SDS011;6795;51.232;3.764;2023-12-28T06:11:50;7.13;;;0.60;;
13445;SDS011;6795;51.232;3.764;2023-12-28T06:14:19;5.70;;;0.60;;
13445;SDS011;6795;51.232;3.764;2023-12-28T06:16:48;10.98;;;0.73;;
13445;SDS011;6795;51.232;3.764;2023-12-28T06:19:17;9.00;;;1.02;;
13445;SDS011;6795;51.232;3.764;2023-12-28T06:21:46;11.27;;;0.90;;
13445;SDS011;6795;51.232;3.764;2023-12-28T06:24:15;7.03;;;0.80;;
13445;SDS011;6795;51.232;3.764;2023-12-28T06:26:44;8.20;;;0.60;;
13445;SDS011;6795;51.232;3.764;2023-12-28T06:29:13;6.97;;;1.30;;
13445;SDS011;6795;51.232;3.764;2023-12-28T06:31:42;3.95;;;1.00;;
13445;SDS011;6795;51.232;3.764;2023-12-28T06:34:10;11.15;;;1.08;;
13445;SDS011;6795;51.232;3.764;2023-12-28T06:36:41;6.50;;;1.17;;
13445;SDS011;6795;51.232;3.764;2023-12-28T06:39:10;5.18;;;0.50;;
13445;SDS011;6795;51.232;3.764;2023-12-28T06:41:38;9.38;;;0.98;;
13445;SDS011;6795;51.232;3.764;2023-12-28T06:44:07;3.85;;;0.60;;
13445;SDS011;6795;51.232;3.764;2023-12-28T06:46:35;12.10;;;1.15;;
13445;SDS011;6795;51.232;3.764;2023-12-28T06:49:04;7.72;;;1.48;;
13445;SDS011;6795;51.232;3.764;2023-12-28T06:51:37;5.68;;;0.68;;
13445;SDS011;6795;51.232;3.764;2023-12-28T06:54:07;9.95;;;1.20;;
13445;SDS011;6795;51.232;3.764;2023-12-28T06:56:35;10.02;;;1.60;;
13445;SDS011;6795;51.232;3.764;2023-12-28T06:59:04;9.82;;;0.77;;
13445;SDS011;6795;51.232;3.764;2023-12-28T07:01:33;7.93;;;1.65;;
13445;SDS011;6795;51.232;3.764;2023-12-28T07:04:01;13.95;;;1.20;;
13445;SDS011;6795;51.232;3.764;2023-12-28T07:06:30;6.18;;;0.60;;
13445;SDS011;6795;51.232;3.764;2023-12-28T07:08:59;9.05;;;0.60;;
13445;SDS011;6795;51.232;3.764;2023-12-28T07:11:30;8.23;;;1.38;;
13445;SDS011;6795;51.232;3.764;2023-12-28T07:13:58;6.05;;;0.70;;
13445;SDS011;6795;51.232;3.764;2023-12-28T07:16:27;12.38;;;1.30;;
13445;SDS011;6795;51.232;3.764;2023-12-28T07:18:55;8.75;;;0.93;;
13445;SDS011;6795;51.232;3.764;2023-12-28T07:21:25;8.50;;;1.08;;
13445;SDS011;6795;51.232;3.764;2023-12-28T07:23:53;10.10;;;0.95;;
13445;SDS011;6795;51.232;3.764;2023-12-28T07:26:22;13.80;;;1.02;;
13445;SDS011;6795;51.232;3.764;2023-12-28T07:28:52;11.45;;;1.02;;
13445;SDS011;6795;51.232;3.764;2023-12-28T07:31:24;8.63;;;0.95;;
13445;SDS011;6795;51.232;3.764;2023-12-28T07:33:53;13.73;;;1.17;;
13445;SDS011;6795;51.232;3.764;2023-12-28T07:36:22;8.40;;;1.05;;
13445;SDS011;6795;51.232;3.764;2023-12-28T07:38:51;7.85;;;0.80;;
13445;SDS011;6795;51.232;3.764;2023-12-28T07:41:20;14.25;;;1.38;;
13445;SDS011;6795;51.232;3.764;2023-12-28T07:43:48;6.93;;;0.93;;
13445;SDS011;6795;51.232;3.764;2023-12-28T07:46:18;13.85;;;1.45;;
13445;SDS011;6795;51.232;3.764;2023-12-28T07:48:47;12.40;;;1.10;;
13445;SDS011;6795;51.232;3.764;2023-12-28T07:51:16;11.38;;;0.70;;
13445;SDS011;6795;51.232;3.764;2023-12-28T07:53:44;9.05;;;1.15;;
13445;SDS011;6795;51.232;3.764;2023-12-28T07:56:13;7.28;;;0.77;;
13445;SDS011;6795;51.232;3.764;2023-12-28T07:58:42;18.30;;;1.88;;
13445;SDS011;6795;51.232;3.764;2023-12-28T08:01:10;11.60;;;0.93;;
13445;SDS011;6795;51.232;3.764;2023-12-28T08:03:41;14.10;;;0.98;;
13445;SDS011;6795;51.232;3.764;2023-12-28T08:06:10;10.85;;;1.17;;
13445;SDS011;6795;51.232;3.764;2023-12-28T08:08:39;12.13;;;1.33;;
13445;SDS011;6795;51.232;3.764;2023-12-28T08:11:08;15.18;;;1.55;;
13445;SDS011;6795;51.232;3.764;2023-12-28T08:13:36;5.93;;;1.48;;
13445;SDS011;6795;51.232;3.764;2023-12-28T08:16:05;10.32;;;1.40;;
13445;SDS011;6795;51.232;3.764;2023-12-28T08:18:34;13.55;;;1.13;;
13445;SDS011;6795;51.232;3.764;2023-12-28T08:21:05;5.95;;;0.65;;
13445;SDS011;6795;51.232;3.764;2023-12-28T08:23:33;12.18;;;1.73;;
13445;SDS011;6795;51.232;3.764;2023-12-28T08:26:02;10.95;;;1.27;;
13445;SDS011;6795;51.232;3.764;2023-12-28T08:28:31;12.82;;;1.48;;
13445;SDS011;6795;51.232;3.764;2023-12-28T08:30:59;11.10;;;1.23;;
13445;SDS011;6795;51.232;3.764;2023-12-28T08:33:29;14.10;;;2.53;;
13445;SDS011;6795;51.232;3.764;2023-12-28T08:35:58;14.07;;;0.70;;
13445;SDS011;6795;51.232;3.764;2023-12-28T08:38:28;11.63;;;1.48;;
13445;SDS011;6795;51.232;3.764;2023-12-28T08:40:57;5.00;;;0.70;;
13445;SDS011;6795;51.232;3.764;2023-12-28T08:43:25;6.53;;;0.57;;
13445;SDS011;6795;51.232;3.764;2023-12-28T08:45:54;10.43;;;1.35;;
13445;SDS011;6795;51.232;3.764;2023-12-28T08:48:23;14.05;;;1.58;;
13445;SDS011;6795;51.232;3.764;2023-12-28T08:50:52;11.32;;;0.90;;
13445;SDS011;6795;51.232;3.764;2023-12-28T08:53:20;14.52;;;2.13;;
13445;SDS011;6795;51.232;3.764;2023-12-28T08:55:50;12.07;;;1.45;;
13445;SDS011;6795;51.232;3.764;2023-12-28T08:58:19;6.88;;;0.68;;
13445;SDS011;6795;51.232;3.764;2023-12-28T09:00:48;14.15;;;0.90;;
13445;SDS011;6795;51.232;3.764;2023-12-28T09:03:16;13.98;;;1.27;;
13445;SDS011;6795;51.232;3.764;2023-12-28T09:05:48;13.90;;;1.50;;
13445;SDS011;6795;51.232;3.764;2023-12-28T09:08:17;13.18;;;1.98;;
13445;SDS011;6795;51.232;3.764;2023-12-28T09:10:45;14.73;;;1.05;;
13445;SDS011;6795;51.232;3.764;2023-12-28T09:13:16;15.73;;;2.25;;
13445;SDS011;6795;51.232;3.764;2023-12-28T09:15:44;11.77;;;1.38;;
13445;SDS011;6795;51.232;3.764;2023-12-28T09:18:14;14.00;;;1.15;;
13445;SDS011;6795;51.232;3.764;2023-12-28T09:20:43;9.82;;;1.02;;
13445;SDS011;6795;51.232;3.764;2023-12-28T09:23:12;9.05;;;2.03;;
13445;SDS011;6795;51.232;3.764;2023-12-28T09:25:40;13.13;;;1.77;;
13445;SDS011;6795;51.232;3.764;2023-12-28T09:28:09;13.13;;;1.42;;
13445;SDS011;6795;51.232;3.764;2023-12-28T09:30:39;9.68;;;1.27;;
13445;SDS011;6795;51.232;3.764;2023-12-28T09:33:08;16.80;;;1.75;;
13445;SDS011;6795;51.232;3.764;2023-12-28T09:35:36;15.18;;;1.35;;
13445;SDS011;6795;51.232;3.764;2023-12-28T09:38:05;11.68;;;1.25;;
13445;SDS011;6795;51.232;3.764;2023-12-28T09:40:34;6.68;;;1.05;;
13445;SDS011;6795;51.232;3.764;2023-12-28T09:43:07;14.90;;;1.60;;
13445;SDS011;6795;51.232;3.764;2023-12-28T09:45:39;9.07;;;0.88;;
13445;SDS011;6795;51.232;3.764;2023-12-28T09:48:08;9.05;;;1.42;;
13445;SDS011;6795;51.232;3.764;2023-12-28T09:50:39;7.65;;;1.42;;
13445;SDS011;6795;51.232;3.764;2023-12-28T09:53:08;15.40;;;1.45;;
13445;SDS011;6795;51.232;3.764;2023-12-28T09:55:36;13.60;;;1.15;;
13445;SDS011;6795;51.232;3.764;2023-12-28T09:58:05;15.50;;;1.27;;
13445;SDS011;6795;51.232;3.764;2023-12-28T10:00:34;12.05;;;1.13;;
13445;SDS011;6795;51.232;3.764;2023-12-28T10:03:05;12.07;;;2.20;;
13445;SDS011;6795;51.232;3.764;2023-12-28T10:05:34;15.00;;;2.17;;
13445;SDS011;6795;51.232;3.764;2023-12-28T10:08:03;17.23;;;1.23;;
13445;SDS011;6795;51.232;3.764;2023-12-28T10:10:32;11.20;;;1.75;;
13445;SDS011;6795;51.232;3.764;2023-12-28T10:13:00;14.40;;;1.15;;
13445;SDS011;6795;51.232;3.764;2023-12-28T10:15:30;14.55;;;1.35;;
13445;SDS011;6795;51.232;3.764;2023-12-28T10:17:59;14.90;;;1.42;;
13445;SDS011;6795;51.232;3.764;2023-12-28T10:20:29;13.60;;;1.58;;
13445;SDS011;6795;51.232;3.764;2023-12-28T10:22:58;12.15;;;1.17;;
13445;SDS011;6795;51.232;3.764;2023-12-28T10:25:28;16.80;;;1.23;;
13445;SDS011;6795;51.232;3.764;2023-12-28T10:27:57;11.65;;;0.85;;
13445;SDS011;6795;51.232;3.764;2023-12-28T10:30:27;19.50;;;2.28;;
13445;SDS011;6795;51.232;3.764;2023-12-28T10:32:57;14.88;;;1.52;;
13445;SDS011;6795;51.232;3.764;2023-12-28T10:35:26;16.25;;;1.02;;
13445;SDS011;6795;51.232;3.764;2023-12-28T10:37:58;10.88;;;1.25;;
13445;SDS011;6795;51.232;3.764;2023-12-28T10:40:26;17.52;;;2.35;;
13445;SDS011;6795;51.232;3.764;2023-12-28T10:42:57;16.67;;;1.20;;
13445;SDS011;6795;51.232;3.764;2023-12-28T10:45:28;13.85;;;1.33;;
13445;SDS011;6795;51.232;3.764;2023-12-28T10:48:00;14.88;;;1.63;;
13445;SDS011;6795;51.232;3.764;2023-12-28T10:50:35;17.10;;;1.88;;
13445;SDS011;6795;51.232;3.764;2023-12-28T10:53:14;20.02;;;1.75;;
13445;SDS011;6795;51.232;3.764;2023-12-28T10:55:45;9.43;;;1.05;;
13445;SDS011;6795;51.232;3.764;2023-12-28T10:58:17;12.18;;;1.83;;
13445;SDS011;6795;51.232;3.764;2023-12-28T11:00:47;8.75;;;1.65;;
13445;SDS011;6795;51.232;3.764;2023-12-28T11:03:21;9.07;;;1.52;;
13445;SDS011;6795;51.232;3.764;2023-12-28T11:05:51;16.67;;;1.70;;
13445;SDS011;6795;51.232;3.764;2023-12-28T11:08:22;13.43;;;2.65;;
13445;SDS011;6795;51.232;3.764;2023-12-28T11:10:51;13.77;;;1.30;;
13445;SDS011;6795;51.232;3.764;2023-12-28T11:13:20;16.65;;;1.45;;
13445;SDS011;6795;51.232;3.764;2023-12-28T11:15:49;9.32;;;1.27;;
13445;SDS011;6795;51.232;3.764;2023-12-28T11:18:18;8.18;;;0.63;;
13445;SDS011;6795;51.232;3.764;2023-12-28T11:20:47;8.50;;;1.00;;
13445;SDS011;6795;51.232;3.764;2023-12-28T11:23:17;17.92;;;2.33;;
13445;SDS011;6795;51.232;3.764;2023-12-28T11:25:47;13.93;;;1.55;;
13445;SDS011;6795;51.232;3.764;2023-12-28T11:28:15;12.65;;;1.75;;
13445;SDS011;6795;51.232;3.764;2023-12-28T11:30:44;11.27;;;1.35;;
13445;SDS011;6795;51.232;3.764;2023-12-28T11:33:15;16.08;;;1.65;;
13445;SDS011;6795;51.232;3.764;2023-12-28T11:35:44;19.33;;;1.63;;
13445;SDS011;6795;51.232;3.764;2023-12-28T11:38:15;8.65;;;0.80;;
13445;SDS011;6795;51.232;3.764;2023-12-28T11:40:46;18.25;;;1.70;;
13445;SDS011;6795;51.232;3.764;2023-12-28T11:43:19;11.23;;;2.35;;
13445;SDS011;6795;51.232;3.764;2023-12-28T11:45:48;7.80;;;1.08;;
13445;SDS011;6795;51.232;3.764;2023-12-28T11:48:24;15.02;;;1.75;;
13445;SDS011;6795;51.232;3.764;2023-12-28T11:50:54;11.65;;;0.98;;
13445;SDS011;6795;51.232;3.764;2023-12-28T11:53:24;16.10;;;1.73;;
13445;SDS011;6795;51.232;3.764;2023-12-28T11:56:00;15.05;;;2.05;;
13445;SDS011;6795;51.232;3.764;2023-12-28T11:58:31;10.43;;;0.98;;
13445;SDS011;6795;51.232;3.764;2023-12-28T12:01:01;11.43;;;1.73;;
13445;SDS011;6795;51.232;3.764;2023-12-28T12:03:30;11.20;;;1.38;;
13445;SDS011;6795;51.232;3.764;2023-12-28T12:06:00;12.55;;;0.90;;
13445;SDS011;6795;51.232;3.764;2023-12-28T12:08:29;22.02;;;2.00;;
13445;SDS011;6795;51.232;3.764;2023-12-28T12:11:03;15.10;;;1.88;;
13445;SDS011;6795;51.232;3.764;2023-12-28T12:13:33;12.43;;;1.27;;
13445;SDS011;6795;51.232;3.764;2023-12-28T12:16:03;15.23;;;1.42;;
13445;SDS011;6795;51.232;3.764;2023-12-28T12:18:33;14.73;;;1.48;;
13445;SDS011;6795;51.232;3.764;2023-12-28T12:21:03;10.40;;;1.05;;
13445;SDS011;6795;51.232;3.764;2023-12-28T12:23:33;15.43;;;1.30;;
13445;SDS011;6795;51.232;3.764;2023-12-28T12:26:05;18.60;;;1.65;;
13445;SDS011;6795;51.232;3.764;2023-12-28T12:28:34;8.55;;;1.00;;
13445;SDS011;6795;51.232;3.764;2023-12-28T12:31:03;8.30;;;1.50;;
13445;SDS011;6795;51.232;3.764;2023-12-28T12:33:32;15.70;;;1.70;;
13445;SDS011;6795;51.232;3.764;2023-12-28T12:36:00;16.70;;;1.48;;
13445;SDS011;6795;51.232;3.764;2023-12-28T12:38:29;13.77;;;2.13;;
13445;SDS011;6795;51.232;3.764;2023-12-28T12:40:58;12.18;;;1.30;;
13445;SDS011;6795;51.232;3.764;2023-12-28T12:43:28;15.65;;;2.15;;
13445;SDS011;6795;51.232;3.764;2023-12-28T12:45:57;12.98;;;1.95;;
13445;SDS011;6795;51.232;3.764;2023-12-28T12:48:26;14.27;;;1.83;;
13445;SDS011;6795;51.232;3.764;2023-12-28T12:50:56;14.30;;;1.52;;
13445;SDS011;6795;51.232;3.764;2023-12-28T12:53:24;12.10;;;1.20;;
13445;SDS011;6795;51.232;3.764;2023-12-28T12:55:54;17.20;;;1.75;;
13445;SDS011;6795;51.232;3.764;2023-12-28T12:58:22;10.25;;;1.45;;
13445;SDS011;6795;51.232;3.764;2023-12-28T13:00:53;19.10;;;2.42;;
13445;SDS011;6795;51.232;3.764;2023-12-28T13:03:22;5.35;;;0.52;;
13445;SDS011;6795;51.232;3.764;2023-12-28T13:05:54;14.65;;;1.58;;
13445;SDS011;6795;51.232;3.764;2023-12-28T13:08:23;15.20;;;1.90;;
13445;SDS011;6795;51.232;3.764;2023-12-28T13:10:52;19.48;;;1.60;;
13445;SDS011;6795;51.232;3.764;2023-12-28T13:13:20;19.35;;;1.35;;
13445;SDS011;6795;51.232;3.764;2023-12-28T13:15:49;10.02;;;1.85;;
13445;SDS011;6795;51.232;3.764;2023-12-28T13:18:18;8.00;;;0.63;;
13445;SDS011;6795;51.232;3.764;2023-12-28T13:20:47;9.07;;;1.38;;
13445;SDS011;6795;51.232;3.764;2023-12-28T13:23:15;12.15;;;1.25;;
13445;SDS011;6795;51.232;3.764;2023-12-28T13:25:43;11.50;;;1.40;;
13445;SDS011;6795;51.232;3.764;2023-12-28T13:28:12;13.50;;;1.30;;
13445;SDS011;6795;51.232;3.764;2023-12-28T13:30:40;17.27;;;1.45;;
13445;SDS011;6795;51.232;3.764;2023-12-28T13:33:09;7.13;;;1.10;;
13445;SDS011;6795;51.232;3.764;2023-12-28T13:35:40;13.65;;;1.73;;
13445;SDS011;6795;51.232;3.764;2023-12-28T13:38:08;15.45;;;1.63;;
13445;SDS011;6795;51.232;3.764;2023-12-28T13:40:37;7.22;;;1.83;;
13445;SDS011;6795;51.232;3.764;2023-12-28T13:43:05;10.05;;;1.50;;
13445;SDS011;6795;51.232;3.764;2023-12-28T13:45:33;18.35;;;2.25;;
13445;SDS011;6795;51.232;3.764;2023-12-28T13:48:02;12.68;;;1.42;;
13445;SDS011;6795;51.232;3.764;2023-12-28T13:50:31;12.88;;;1.45;;
13445;SDS011;6795;51.232;3.764;2023-12-28T13:53:01;16.23;;;2.47;;
13445;SDS011;6795;51.232;3.764;2023-12-28T13:55:31;11.75;;;1.30;;
13445;SDS011;6795;51.232;3.764;2023-12-28T13:57:59;16.35;;;2.03;;
13445;SDS011;6795;51.232;3.764;2023-12-28T14:00:29;12.05;;;1.75;;
13445;SDS011;6795;51.232;3.764;2023-12-28T14:02:58;11.80;;;1.30;;
13445;SDS011;6795;51.232;3.764;2023-12-28T14:05:27;15.20;;;1.48;;
13445;SDS011;6795;51.232;3.764;2023-12-28T14:08:01;9.20;;;1.33;;
13445;SDS011;6795;51.232;3.764;2023-12-28T14:10:31;12.60;;;1.10;;
13445;SDS011;6795;51.232;3.764;2023-12-28T14:13:00;11.73;;;1.27;;
13445;SDS011;6795;51.232;3.764;2023-12-28T14:15:29;7.75;;;1.05;;
13445;SDS011;6795;51.232;3.764;2023-12-28T14:17:57;5.93;;;0.98;;
13445;SDS011;6795;51.232;3.764;2023-12-28T14:20:25;19.00;;;1.25;;
13445;SDS011;6795;51.232;3.764;2023-12-28T14:22:54;14.55;;;1.58;;
13445;SDS011;6795;51.232;3.764;2023-12-28T14:25:26;10.13;;;1.02;;
13445;SDS011;6795;51.232;3.764;2023-12-28T14:27:55;11.35;;;0.98;;
13445;SDS011;6795;51.232;3.764;2023-12-28T14:30:23;18.15;;;1.17;;
13445;SDS011;6795;51.232;3.764;2023-12-28T14:32:52;10.65;;;1.10;;
13445;SDS011;6795;51.232;3.764;2023-12-28T14:35:21;6.75;;;0.95;;
13445;SDS011;6795;51.232;3.764;2023-12-28T14:37:51;9.43;;;1.10;;
13445;SDS011;6795;51.232;3.764;2023-12-28T14:40:20;15.32;;;1.42;;
13445;SDS011;6795;51.232;3.764;2023-12-28T14:42:49;12.32;;;1.23;;
13445;SDS011;6795;51.232;3.764;2023-12-28T14:45:18;15.40;;;1.42;;
13445;SDS011;6795;51.232;3.764;2023-12-28T14:47:46;10.88;;;0.90;;
13445;SDS011;6795;51.232;3.764;2023-12-28T14:50:15;7.93;;;1.17;;
13445;SDS011;6795;51.232;3.764;2023-12-28T14:52:43;12.85;;;1.73;;
13445;SDS011;6795;51.232;3.764;2023-12-28T14:55:13;14.63;;;1.85;;
13445;SDS011;6795;51.232;3.764;2023-12-28T14:57:41;14.68;;;1.27;;
13445;SDS011;6795;51.232;3.764;2023-12-28T15:00:12;12.70;;;2.45;;
13445;SDS011;6795;51.232;3.764;2023-12-28T15:02:42;4.13;;;0.50;;
13445;SDS011;6795;51.232;3.764;2023-12-28T15:05:10;8.35;;;1.10;;
13445;SDS011;6795;51.232;3.764;2023-12-28T15:07:39;19.48;;;1.80;;